Terminal Aerodrome Forecast
Issued by NWS

Home | Current Version | Previous Version | Text Only | Print | Product List | Glossary On
Versions: 1 2 3 4 5 6 7 8 9 10 11 12 13 14 15 16 17 18 19 20 21 22 23 24 25 26 27 28 29
000
FTUS42 KCAE 181730
TAFCUB
TAF
KCUB 181730Z 1818/1918 07007KT P6SM BKN060
     FM190300 09003KT P6SM OVC035
     FM190400 09003KT P6SM OVC015
     FM190700 08003KT 6SM BR OVC007
     FM191100 06003KT 3SM BR OVC004=

USA.gov is the U.S. government's official web portal to all federal, state and local government web resources and services.